sensor_id;sensor_type;location;lat;lon;timestamp;P1;durP1;ratioP1;P2;durP2;ratioP2
27778;SDS011;30234;48.090;11.464;2022-12-01T00:00:14;31.27;;;16.73;;
27778;SDS011;30234;48.090;11.464;2022-12-01T00:04:15;37.13;;;18.95;;
27778;SDS011;30234;48.090;11.464;2022-12-01T00:08:16;37.72;;;18.05;;
27778;SDS011;30234;48.090;11.464;2022-12-01T00:12:18;33.67;;;15.77;;
27778;SDS011;30234;48.090;11.464;2022-12-01T00:16:19;37.03;;;17.20;;
27778;SDS011;30234;48.090;11.464;2022-12-01T00:20:20;36.58;;;18.10;;
27778;SDS011;30234;48.090;11.464;2022-12-01T00:24:21;40.13;;;18.58;;
27778;SDS011;30234;48.090;11.464;2022-12-01T00:28:23;41.90;;;20.92;;
27778;SDS011;30234;48.090;11.464;2022-12-01T00:32:24;38.55;;;18.42;;
27778;SDS011;30234;48.090;11.464;2022-12-01T00:36:24;34.15;;;17.20;;
27778;SDS011;30234;48.090;11.464;2022-12-01T00:40:25;38.85;;;18.70;;
27778;SDS011;30234;48.090;11.464;2022-12-01T00:44:26;43.92;;;20.85;;
27778;SDS011;30234;48.090;11.464;2022-12-01T00:48:27;38.30;;;18.92;;
27778;SDS011;30234;48.090;11.464;2022-12-01T00:52:27;39.90;;;19.25;;
27778;SDS011;30234;48.090;11.464;2022-12-01T00:56:28;36.40;;;18.92;;
27778;SDS011;30234;48.090;11.464;2022-12-01T01:00:29;37.80;;;18.02;;
27778;SDS011;30234;48.090;11.464;2022-12-01T01:04:30;38.47;;;19.10;;
27778;SDS011;30234;48.090;11.464;2022-12-01T01:08:33;36.28;;;17.80;;
27778;SDS011;30234;48.090;11.464;2022-12-01T01:12:35;40.35;;;19.67;;
27778;SDS011;30234;48.090;11.464;2022-12-01T01:16:37;41.70;;;19.70;;
27778;SDS011;30234;48.090;11.464;2022-12-01T01:20:38;40.95;;;19.77;;
27778;SDS011;30234;48.090;11.464;2022-12-01T01:24:38;34.63;;;17.25;;
27778;SDS011;30234;48.090;11.464;2022-12-01T01:28:39;39.63;;;19.73;;
27778;SDS011;30234;48.090;11.464;2022-12-01T01:32:40;32.20;;;17.08;;
27778;SDS011;30234;48.090;11.464;2022-12-01T01:36:41;36.13;;;17.77;;
27778;SDS011;30234;48.090;11.464;2022-12-01T01:40:42;41.45;;;18.95;;
27778;SDS011;30234;48.090;11.464;2022-12-01T01:44:47;38.53;;;18.77;;
27778;SDS011;30234;48.090;11.464;2022-12-01T01:53:01;38.58;;;18.45;;
27778;SDS011;30234;48.090;11.464;2022-12-01T01:57:07;41.92;;;18.10;;
27778;SDS011;30234;48.090;11.464;2022-12-01T02:01:11;42.58;;;17.02;;
27778;SDS011;30234;48.090;11.464;2022-12-01T02:05:15;35.63;;;17.10;;
27778;SDS011;30234;48.090;11.464;2022-12-01T02:09:22;33.03;;;17.00;;
27778;SDS011;30234;48.090;11.464;2022-12-01T02:23:00;31.80;;;14.52;;
27778;SDS011;30234;48.090;11.464;2022-12-01T02:31:53;34.65;;;17.40;;
27778;SDS011;30234;48.090;11.464;2022-12-01T02:44:56;37.70;;;16.25;;
27778;SDS011;30234;48.090;11.464;2022-12-01T02:49:01;35.38;;;16.33;;
27778;SDS011;30234;48.090;11.464;2022-12-01T02:53:10;39.65;;;17.83;;
27778;SDS011;30234;48.090;11.464;2022-12-01T02:57:14;35.38;;;16.92;;
27778;SDS011;30234;48.090;11.464;2022-12-01T03:01:23;42.10;;;18.90;;
27778;SDS011;30234;48.090;11.464;2022-12-01T03:05:52;42.70;;;20.63;;
27778;SDS011;30234;48.090;11.464;2022-12-01T03:23:27;49.55;;;19.42;;
27778;SDS011;30234;48.090;11.464;2022-12-01T03:27:33;45.42;;;18.70;;
27778;SDS011;30234;48.090;11.464;2022-12-01T03:31:38;42.42;;;19.48;;
27778;SDS011;30234;48.090;11.464;2022-12-01T03:35:50;42.28;;;19.73;;
27778;SDS011;30234;48.090;11.464;2022-12-01T03:39:57;44.72;;;18.67;;
27778;SDS011;30234;48.090;11.464;2022-12-01T03:44:10;45.58;;;19.67;;
27778;SDS011;30234;48.090;11.464;2022-12-01T03:48:18;47.45;;;19.33;;
27778;SDS011;30234;48.090;11.464;2022-12-01T03:57:31;43.97;;;19.13;;
27778;SDS011;30234;48.090;11.464;2022-12-01T04:01:40;52.58;;;20.27;;
27778;SDS011;30234;48.090;11.464;2022-12-01T04:05:41;46.95;;;20.58;;
27778;SDS011;30234;48.090;11.464;2022-12-01T04:09:41;45.90;;;20.40;;
27778;SDS011;30234;48.090;11.464;2022-12-01T04:13:42;43.15;;;18.45;;
27778;SDS011;30234;48.090;11.464;2022-12-01T04:17:43;43.95;;;18.13;;
27778;SDS011;30234;48.090;11.464;2022-12-01T04:21:44;45.38;;;18.05;;
27778;SDS011;30234;48.090;11.464;2022-12-01T04:25:44;46.53;;;19.17;;
27778;SDS011;30234;48.090;11.464;2022-12-01T04:29:45;51.75;;;19.75;;
27778;SDS011;30234;48.090;11.464;2022-12-01T04:33:46;44.80;;;19.45;;
27778;SDS011;30234;48.090;11.464;2022-12-01T04:37:47;49.50;;;19.40;;
27778;SDS011;30234;48.090;11.464;2022-12-01T04:41:47;40.17;;;17.98;;
27778;SDS011;30234;48.090;11.464;2022-12-01T04:45:48;45.65;;;18.30;;
27778;SDS011;30234;48.090;11.464;2022-12-01T04:49:49;46.38;;;19.52;;
27778;SDS011;30234;48.090;11.464;2022-12-01T04:53:50;44.55;;;18.42;;
27778;SDS011;30234;48.090;11.464;2022-12-01T04:57:51;47.20;;;18.67;;
27778;SDS011;30234;48.090;11.464;2022-12-01T05:01:52;44.03;;;18.33;;
27778;SDS011;30234;48.090;11.464;2022-12-01T05:06:06;47.53;;;18.90;;
27778;SDS011;30234;48.090;11.464;2022-12-01T05:10:13;50.05;;;21.63;;
27778;SDS011;30234;48.090;11.464;2022-12-01T05:14:13;48.80;;;20.20;;
27778;SDS011;30234;48.090;11.464;2022-12-01T05:18:14;38.42;;;18.17;;
27778;SDS011;30234;48.090;11.464;2022-12-01T05:22:15;46.88;;;18.52;;
27778;SDS011;30234;48.090;11.464;2022-12-01T05:26:15;40.25;;;17.65;;
27778;SDS011;30234;48.090;11.464;2022-12-01T05:30:16;43.72;;;18.15;;
27778;SDS011;30234;48.090;11.464;2022-12-01T05:34:17;39.20;;;17.48;;
27778;SDS011;30234;48.090;11.464;2022-12-01T05:38:18;37.75;;;17.40;;
27778;SDS011;30234;48.090;11.464;2022-12-01T05:42:19;46.03;;;18.08;;
27778;SDS011;30234;48.090;11.464;2022-12-01T05:46:20;41.40;;;16.92;;
27778;SDS011;30234;48.090;11.464;2022-12-01T05:50:21;39.45;;;17.10;;
27778;SDS011;30234;48.090;11.464;2022-12-01T05:54:23;43.45;;;17.90;;
27778;SDS011;30234;48.090;11.464;2022-12-01T05:58:23;41.05;;;18.67;;
27778;SDS011;30234;48.090;11.464;2022-12-01T06:02:24;43.17;;;17.42;;
27778;SDS011;30234;48.090;11.464;2022-12-01T06:06:28;41.10;;;19.25;;
27778;SDS011;30234;48.090;11.464;2022-12-01T06:10:29;41.95;;;18.00;;
27778;SDS011;30234;48.090;11.464;2022-12-01T06:14:29;43.30;;;18.83;;
27778;SDS011;30234;48.090;11.464;2022-12-01T06:18:32;39.17;;;17.50;;
27778;SDS011;30234;48.090;11.464;2022-12-01T06:22:36;39.33;;;18.73;;
27778;SDS011;30234;48.090;11.464;2022-12-01T06:26:36;33.85;;;16.58;;
27778;SDS011;30234;48.090;11.464;2022-12-01T06:30:37;33.58;;;15.98;;
27778;SDS011;30234;48.090;11.464;2022-12-01T06:34:38;32.22;;;15.40;;
27778;SDS011;30234;48.090;11.464;2022-12-01T06:38:39;42.13;;;18.23;;
27778;SDS011;30234;48.090;11.464;2022-12-01T06:42:39;38.78;;;17.90;;
27778;SDS011;30234;48.090;11.464;2022-12-01T06:46:40;36.58;;;17.70;;
27778;SDS011;30234;48.090;11.464;2022-12-01T06:50:41;36.92;;;17.20;;
27778;SDS011;30234;48.090;11.464;2022-12-01T06:54:42;37.78;;;17.02;;
27778;SDS011;30234;48.090;11.464;2022-12-01T06:58:42;41.30;;;17.50;;
27778;SDS011;30234;48.090;11.464;2022-12-01T07:02:43;37.47;;;18.00;;
27778;SDS011;30234;48.090;11.464;2022-12-01T07:06:44;35.85;;;15.80;;
27778;SDS011;30234;48.090;11.464;2022-12-01T07:10:45;38.92;;;17.45;;
27778;SDS011;30234;48.090;11.464;2022-12-01T07:14:55;39.85;;;17.25;;
27778;SDS011;30234;48.090;11.464;2022-12-01T07:18:57;38.83;;;18.63;;
27778;SDS011;30234;48.090;11.464;2022-12-01T07:22:58;43.00;;;19.30;;
27778;SDS011;30234;48.090;11.464;2022-12-01T07:26:59;38.80;;;18.67;;
27778;SDS011;30234;48.090;11.464;2022-12-01T07:31:07;36.47;;;17.80;;
27778;SDS011;30234;48.090;11.464;2022-12-01T07:35:10;36.35;;;17.80;;
27778;SDS011;30234;48.090;11.464;2022-12-01T07:39:10;35.40;;;16.92;;
27778;SDS011;30234;48.090;11.464;2022-12-01T07:43:11;40.35;;;18.77;;
27778;SDS011;30234;48.090;11.464;2022-12-01T07:47:12;34.53;;;16.35;;
27778;SDS011;30234;48.090;11.464;2022-12-01T07:51:13;37.35;;;16.40;;
27778;SDS011;30234;48.090;11.464;2022-12-01T07:55:18;35.30;;;17.67;;
27778;SDS011;30234;48.090;11.464;2022-12-01T07:59:19;32.13;;;16.15;;
27778;SDS011;30234;48.090;11.464;2022-12-01T08:03:19;38.00;;;17.30;;
27778;SDS011;30234;48.090;11.464;2022-12-01T08:07:20;34.08;;;17.00;;
27778;SDS011;30234;48.090;11.464;2022-12-01T08:11:22;33.55;;;16.50;;
27778;SDS011;30234;48.090;11.464;2022-12-01T08:15:25;34.55;;;15.80;;
27778;SDS011;30234;48.090;11.464;2022-12-01T08:19:25;33.38;;;16.20;;
27778;SDS011;30234;48.090;11.464;2022-12-01T08:23:28;34.75;;;15.52;;
27778;SDS011;30234;48.090;11.464;2022-12-01T08:27:29;40.22;;;16.67;;
27778;SDS011;30234;48.090;11.464;2022-12-01T08:31:31;38.47;;;17.48;;
27778;SDS011;30234;48.090;11.464;2022-12-01T08:35:35;34.13;;;15.63;;
27778;SDS011;30234;48.090;11.464;2022-12-01T08:39:36;31.85;;;16.13;;
27778;SDS011;30234;48.090;11.464;2022-12-01T08:43:36;37.47;;;16.42;;
27778;SDS011;30234;48.090;11.464;2022-12-01T08:47:39;33.13;;;16.27;;
27778;SDS011;30234;48.090;11.464;2022-12-01T08:51:39;32.92;;;15.77;;
27778;SDS011;30234;48.090;11.464;2022-12-01T08:55:40;36.70;;;16.23;;
27778;SDS011;30234;48.090;11.464;2022-12-01T08:59:41;34.45;;;16.85;;
27778;SDS011;30234;48.090;11.464;2022-12-01T09:03:43;35.20;;;14.65;;
27778;SDS011;30234;48.090;11.464;2022-12-01T09:07:44;39.72;;;17.20;;
27778;SDS011;30234;48.090;11.464;2022-12-01T09:12:04;35.25;;;16.50;;
27778;SDS011;30234;48.090;11.464;2022-12-01T09:16:07;40.35;;;18.27;;
27778;SDS011;30234;48.090;11.464;2022-12-01T09:20:16;33.25;;;15.85;;
27778;SDS011;30234;48.090;11.464;2022-12-01T09:24:16;36.78;;;17.60;;
27778;SDS011;30234;48.090;11.464;2022-12-01T09:28:17;43.10;;;18.70;;
27778;SDS011;30234;48.090;11.464;2022-12-01T09:32:18;37.63;;;17.75;;
27778;SDS011;30234;48.090;11.464;2022-12-01T09:36:19;43.03;;;17.13;;
27778;SDS011;30234;48.090;11.464;2022-12-01T09:40:20;34.88;;;16.50;;
27778;SDS011;30234;48.090;11.464;2022-12-01T09:44:41;37.88;;;17.30;;
27778;SDS011;30234;48.090;11.464;2022-12-01T09:48:52;32.30;;;16.10;;
27778;SDS011;30234;48.090;11.464;2022-12-01T09:53:01;36.35;;;16.02;;
27778;SDS011;30234;48.090;11.464;2022-12-01T09:57:08;43.28;;;20.48;;
27778;SDS011;30234;48.090;11.464;2022-12-01T10:01:32;38.85;;;17.70;;
27778;SDS011;30234;48.090;11.464;2022-12-01T10:05:41;36.13;;;15.98;;
27778;SDS011;30234;48.090;11.464;2022-12-01T10:10:01;41.55;;;18.00;;
27778;SDS011;30234;48.090;11.464;2022-12-01T10:14:09;32.88;;;15.90;;
27778;SDS011;30234;48.090;11.464;2022-12-01T10:32:20;33.42;;;15.20;;
27778;SDS011;30234;48.090;11.464;2022-12-01T10:36:31;30.65;;;14.57;;
27778;SDS011;30234;48.090;11.464;2022-12-01T10:40:33;31.52;;;15.32;;
27778;SDS011;30234;48.090;11.464;2022-12-01T10:44:34;31.20;;;17.05;;
27778;SDS011;30234;48.090;11.464;2022-12-01T10:48:36;31.17;;;15.55;;
27778;SDS011;30234;48.090;11.464;2022-12-01T10:52:58;29.25;;;13.43;;
27778;SDS011;30234;48.090;11.464;2022-12-01T10:56:59;37.08;;;16.58;;
27778;SDS011;30234;48.090;11.464;2022-12-01T11:01:02;31.45;;;14.93;;
27778;SDS011;30234;48.090;11.464;2022-12-01T11:05:05;41.13;;;14.90;;
27778;SDS011;30234;48.090;11.464;2022-12-01T11:09:25;35.70;;;15.63;;
27778;SDS011;30234;48.090;11.464;2022-12-01T11:13:29;28.17;;;14.55;;
27778;SDS011;30234;48.090;11.464;2022-12-01T11:17:34;31.60;;;15.77;;
27778;SDS011;30234;48.090;11.464;2022-12-01T11:21:47;31.70;;;14.75;;
27778;SDS011;30234;48.090;11.464;2022-12-01T11:26:16;30.30;;;15.20;;
27778;SDS011;30234;48.090;11.464;2022-12-01T11:30:26;27.73;;;13.98;;
27778;SDS011;30234;48.090;11.464;2022-12-01T11:34:30;33.45;;;14.50;;
27778;SDS011;30234;48.090;11.464;2022-12-01T11:38:36;26.30;;;12.85;;
27778;SDS011;30234;48.090;11.464;2022-12-01T11:42:37;28.15;;;13.70;;
27778;SDS011;30234;48.090;11.464;2022-12-01T11:46:40;29.10;;;13.88;;
27778;SDS011;30234;48.090;11.464;2022-12-01T11:50:42;24.92;;;13.45;;
27778;SDS011;30234;48.090;11.464;2022-12-01T11:54:57;27.75;;;13.63;;
27778;SDS011;30234;48.090;11.464;2022-12-01T11:59:02;23.55;;;12.73;;
27778;SDS011;30234;48.090;11.464;2022-12-01T12:03:17;29.42;;;14.00;;
27778;SDS011;30234;48.090;11.464;2022-12-01T12:12:03;30.05;;;14.15;;
27778;SDS011;30234;48.090;11.464;2022-12-01T12:25:00;36.92;;;15.38;;
27778;SDS011;30234;48.090;11.464;2022-12-01T12:33:44;30.67;;;13.82;;
27778;SDS011;30234;48.090;11.464;2022-12-01T12:52:04;25.50;;;12.48;;
27778;SDS011;30234;48.090;11.464;2022-12-01T12:56:13;31.48;;;12.68;;
27778;SDS011;30234;48.090;11.464;2022-12-01T13:00:24;26.25;;;12.23;;
27778;SDS011;30234;48.090;11.464;2022-12-01T13:04:31;25.23;;;11.95;;
27778;SDS011;30234;48.090;11.464;2022-12-01T13:08:42;26.63;;;13.32;;
27778;SDS011;30234;48.090;11.464;2022-12-01T13:12:56;25.60;;;12.20;;
27778;SDS011;30234;48.090;11.464;2022-12-01T13:17:13;23.77;;;12.07;;
27778;SDS011;30234;48.090;11.464;2022-12-01T13:21:29;26.95;;;12.70;;
27778;SDS011;30234;48.090;11.464;2022-12-01T13:25:36;26.25;;;12.45;;
27778;SDS011;30234;48.090;11.464;2022-12-01T13:29:43;25.08;;;13.15;;
27778;SDS011;30234;48.090;11.464;2022-12-01T13:34:25;27.88;;;13.38;;
27778;SDS011;30234;48.090;11.464;2022-12-01T13:38:38;23.98;;;13.02;;
27778;SDS011;30234;48.090;11.464;2022-12-01T13:42:39;33.90;;;13.40;;
27778;SDS011;30234;48.090;11.464;2022-12-01T13:55:32;31.90;;;13.52;;
27778;SDS011;30234;48.090;11.464;2022-12-01T14:08:25;35.08;;;15.05;;
27778;SDS011;30234;48.090;11.464;2022-12-01T14:12:28;33.97;;;15.60;;
27778;SDS011;30234;48.090;11.464;2022-12-01T14:16:49;31.80;;;13.73;;
27778;SDS011;30234;48.090;11.464;2022-12-01T14:21:05;26.10;;;13.85;;
27778;SDS011;30234;48.090;11.464;2022-12-01T14:29:32;25.65;;;12.98;;
27778;SDS011;30234;48.090;11.464;2022-12-01T14:33:42;27.23;;;13.48;;
27778;SDS011;30234;48.090;11.464;2022-12-01T14:38:02;30.90;;;14.88;;
27778;SDS011;30234;48.090;11.464;2022-12-01T14:51:23;24.83;;;13.38;;
27778;SDS011;30234;48.090;11.464;2022-12-01T14:55:36;26.65;;;13.32;;
27778;SDS011;30234;48.090;11.464;2022-12-01T14:59:41;30.17;;;14.63;;
27778;SDS011;30234;48.090;11.464;2022-12-01T15:03:44;33.60;;;15.73;;
27778;SDS011;30234;48.090;11.464;2022-12-01T15:07:51;29.30;;;13.40;;
27778;SDS011;30234;48.090;11.464;2022-12-01T15:11:59;28.42;;;14.38;;
27778;SDS011;30234;48.090;11.464;2022-12-01T15:16:03;27.67;;;13.93;;
27778;SDS011;30234;48.090;11.464;2022-12-01T15:20:33;26.25;;;13.30;;
27778;SDS011;30234;48.090;11.464;2022-12-01T15:24:36;36.25;;;14.70;;
27778;SDS011;30234;48.090;11.464;2022-12-01T15:28:38;23.90;;;13.15;;
27778;SDS011;30234;48.090;11.464;2022-12-01T15:32:39;35.55;;;14.30;;
27778;SDS011;30234;48.090;11.464;2022-12-01T15:36:44;26.52;;;12.95;;
27778;SDS011;30234;48.090;11.464;2022-12-01T15:40:47;35.50;;;14.75;;
27778;SDS011;30234;48.090;11.464;2022-12-01T15:44:57;25.38;;;12.52;;
27778;SDS011;30234;48.090;11.464;2022-12-01T15:49:15;28.77;;;13.55;;
27778;SDS011;30234;48.090;11.464;2022-12-01T15:53:29;32.35;;;16.55;;
27778;SDS011;30234;48.090;11.464;2022-12-01T15:57:32;41.55;;;20.38;;
27778;SDS011;30234;48.090;11.464;2022-12-01T16:01:34;27.48;;;14.00;;
27778;SDS011;30234;48.090;11.464;2022-12-01T16:05:35;34.35;;;16.30;;
27778;SDS011;30234;48.090;11.464;2022-12-01T16:13:59;30.85;;;15.15;;
27778;SDS011;30234;48.090;11.464;2022-12-01T16:18:15;29.17;;;13.05;;
27778;SDS011;30234;48.090;11.464;2022-12-01T16:22:30;32.33;;;15.65;;
27778;SDS011;30234;48.090;11.464;2022-12-01T16:26:31;29.75;;;12.75;;
27778;SDS011;30234;48.090;11.464;2022-12-01T16:30:34;28.70;;;13.88;;
27778;SDS011;30234;48.090;11.464;2022-12-01T16:34:38;26.65;;;13.50;;
27778;SDS011;30234;48.090;11.464;2022-12-01T16:38:38;29.45;;;14.40;;
27778;SDS011;30234;48.090;11.464;2022-12-01T16:42:39;28.17;;;13.10;;
27778;SDS011;30234;48.090;11.464;2022-12-01T16:46:40;34.20;;;14.25;;
27778;SDS011;30234;48.090;11.464;2022-12-01T16:50:41;31.60;;;14.00;;
27778;SDS011;30234;48.090;11.464;2022-12-01T16:54:41;27.95;;;14.27;;
27778;SDS011;30234;48.090;11.464;2022-12-01T16:58:42;32.05;;;14.60;;
27778;SDS011;30234;48.090;11.464;2022-12-01T17:02:44;31.10;;;15.15;;
27778;SDS011;30234;48.090;11.464;2022-12-01T17:06:44;27.90;;;13.15;;
27778;SDS011;30234;48.090;11.464;2022-12-01T17:10:47;27.50;;;12.85;;
27778;SDS011;30234;48.090;11.464;2022-12-01T17:14:49;30.65;;;13.73;;
27778;SDS011;30234;48.090;11.464;2022-12-01T17:18:50;29.70;;;13.57;;
27778;SDS011;30234;48.090;11.464;2022-12-01T17:22:51;30.60;;;13.32;;
27778;SDS011;30234;48.090;11.464;2022-12-01T17:26:51;30.65;;;12.88;;
27778;SDS011;30234;48.090;11.464;2022-12-01T17:30:52;31.48;;;14.45;;
27778;SDS011;30234;48.090;11.464;2022-12-01T17:34:53;33.90;;;13.23;;
27778;SDS011;30234;48.090;11.464;2022-12-01T17:38:54;32.17;;;15.25;;
27778;SDS011;30234;48.090;11.464;2022-12-01T17:42:55;27.02;;;13.40;;
27778;SDS011;30234;48.090;11.464;2022-12-01T17:46:55;29.45;;;13.75;;
27778;SDS011;30234;48.090;11.464;2022-12-01T17:50:57;32.25;;;15.15;;
27778;SDS011;30234;48.090;11.464;2022-12-01T17:54:58;33.80;;;13.57;;
27778;SDS011;30234;48.090;11.464;2022-12-01T17:58:58;27.45;;;12.60;;
27778;SDS011;30234;48.090;11.464;2022-12-01T18:03:00;32.20;;;14.32;;
27778;SDS011;30234;48.090;11.464;2022-12-01T18:07:00;26.73;;;14.02;;
27778;SDS011;30234;48.090;11.464;2022-12-01T18:11:02;34.05;;;14.38;;
27778;SDS011;30234;48.090;11.464;2022-12-01T18:15:09;30.05;;;13.25;;
27778;SDS011;30234;48.090;11.464;2022-12-01T18:19:11;27.20;;;12.82;;
27778;SDS011;30234;48.090;11.464;2022-12-01T18:23:12;31.02;;;14.98;;
27778;SDS011;30234;48.090;11.464;2022-12-01T18:27:12;25.02;;;12.52;;
27778;SDS011;30234;48.090;11.464;2022-12-01T18:31:14;29.50;;;13.10;;
27778;SDS011;30234;48.090;11.464;2022-12-01T18:35:15;26.27;;;12.80;;
27778;SDS011;30234;48.090;11.464;2022-12-01T18:39:16;30.08;;;14.30;;
27778;SDS011;30234;48.090;11.464;2022-12-01T18:43:17;30.17;;;14.15;;
27778;SDS011;30234;48.090;11.464;2022-12-01T18:47:17;30.60;;;14.98;;
27778;SDS011;30234;48.090;11.464;2022-12-01T18:51:20;27.88;;;13.82;;
27778;SDS011;30234;48.090;11.464;2022-12-01T18:55:20;30.63;;;13.93;;
27778;SDS011;30234;48.090;11.464;2022-12-01T18:59:21;27.73;;;12.40;;
27778;SDS011;30234;48.090;11.464;2022-12-01T19:03:22;33.03;;;14.27;;
27778;SDS011;30234;48.090;11.464;2022-12-01T19:07:23;29.05;;;13.60;;
27778;SDS011;30234;48.090;11.464;2022-12-01T19:11:23;27.60;;;14.40;;
27778;SDS011;30234;48.090;11.464;2022-12-01T19:15:24;29.85;;;13.45;;
27778;SDS011;30234;48.090;11.464;2022-12-01T19:19:25;32.58;;;14.75;;
27778;SDS011;30234;48.090;11.464;2022-12-01T19:23:26;36.80;;;14.10;;
27778;SDS011;30234;48.090;11.464;2022-12-01T19:27:27;29.50;;;12.93;;
27778;SDS011;30234;48.090;11.464;2022-12-01T19:31:29;28.17;;;14.63;;
27778;SDS011;30234;48.090;11.464;2022-12-01T19:35:30;30.17;;;15.20;;
27778;SDS011;30234;48.090;11.464;2022-12-01T19:39:30;31.42;;;15.18;;
27778;SDS011;30234;48.090;11.464;2022-12-01T19:43:32;30.02;;;16.02;;
27778;SDS011;30234;48.090;11.464;2022-12-01T19:47:34;31.45;;;14.50;;
27778;SDS011;30234;48.090;11.464;2022-12-01T19:51:37;28.38;;;14.57;;
27778;SDS011;30234;48.090;11.464;2022-12-01T19:55:38;35.22;;;15.02;;
27778;SDS011;30234;48.090;11.464;2022-12-01T19:59:39;28.50;;;14.18;;
27778;SDS011;30234;48.090;11.464;2022-12-01T20:03:40;35.30;;;15.68;;
27778;SDS011;30234;48.090;11.464;2022-12-01T20:07:44;28.10;;;13.82;;
27778;SDS011;30234;48.090;11.464;2022-12-01T20:11:46;29.23;;;14.75;;
27778;SDS011;30234;48.090;11.464;2022-12-01T20:15:47;28.25;;;14.18;;
27778;SDS011;30234;48.090;11.464;2022-12-01T20:19:47;30.83;;;15.02;;
27778;SDS011;30234;48.090;11.464;2022-12-01T20:23:49;29.92;;;14.13;;
27778;SDS011;30234;48.090;11.464;2022-12-01T20:27:54;24.38;;;13.13;;
27778;SDS011;30234;48.090;11.464;2022-12-01T20:31:56;28.52;;;13.88;;
27778;SDS011;30234;48.090;11.464;2022-12-01T20:35:58;26.40;;;13.20;;
27778;SDS011;30234;48.090;11.464;2022-12-01T20:39:58;30.23;;;14.20;;
27778;SDS011;30234;48.090;11.464;2022-12-01T20:43:59;28.83;;;13.85;;
27778;SDS011;30234;48.090;11.464;2022-12-01T20:48:00;24.30;;;13.10;;
27778;SDS011;30234;48.090;11.464;2022-12-01T20:52:01;27.13;;;13.82;;
27778;SDS011;30234;48.090;11.464;2022-12-01T20:56:03;31.63;;;14.02;;
27778;SDS011;30234;48.090;11.464;2022-12-01T21:00:06;31.02;;;13.35;;
27778;SDS011;30234;48.090;11.464;2022-12-01T21:04:11;30.33;;;13.00;;
27778;SDS011;30234;48.090;11.464;2022-12-01T21:08:15;28.92;;;14.05;;
27778;SDS011;30234;48.090;11.464;2022-12-01T21:12:16;34.78;;;14.55;;
27778;SDS011;30234;48.090;11.464;2022-12-01T21:16:35;30.40;;;13.55;;
27778;SDS011;30234;48.090;11.464;2022-12-01T21:20:38;31.15;;;14.02;;
27778;SDS011;30234;48.090;11.464;2022-12-01T21:24:43;26.10;;;13.15;;
27778;SDS011;30234;48.090;11.464;2022-12-01T21:28:48;28.92;;;12.70;;
27778;SDS011;30234;48.090;11.464;2022-12-01T21:32:48;39.47;;;23.17;;
27778;SDS011;30234;48.090;11.464;2022-12-01T21:36:50;32.92;;;15.82;;
27778;SDS011;30234;48.090;11.464;2022-12-01T21:40:53;33.80;;;16.98;;
27778;SDS011;30234;48.090;11.464;2022-12-01T21:44:55;28.50;;;14.95;;
27778;SDS011;30234;48.090;11.464;2022-12-01T21:48:56;30.70;;;14.90;;
27778;SDS011;30234;48.090;11.464;2022-12-01T21:52:57;29.17;;;14.02;;
27778;SDS011;30234;48.090;11.464;2022-12-01T21:56:57;30.38;;;13.77;;
27778;SDS011;30234;48.090;11.464;2022-12-01T22:00:58;27.35;;;13.20;;
27778;SDS011;30234;48.090;11.464;2022-12-01T22:05:00;27.33;;;13.32;;
27778;SDS011;30234;48.090;11.464;2022-12-01T22:09:10;29.42;;;13.18;;
27778;SDS011;30234;48.090;11.464;2022-12-01T22:13:13;30.75;;;13.55;;
27778;SDS011;30234;48.090;11.464;2022-12-01T22:17:16;29.60;;;13.50;;
27778;SDS011;30234;48.090;11.464;2022-12-01T22:25:33;28.30;;;13.25;;
27778;SDS011;30234;48.090;11.464;2022-12-01T22:29:44;23.80;;;11.93;;
27778;SDS011;30234;48.090;11.464;2022-12-01T22:33:47;29.45;;;13.07;;
27778;SDS011;30234;48.090;11.464;2022-12-01T22:42:12;26.50;;;12.85;;
27778;SDS011;30234;48.090;11.464;2022-12-01T22:50:33;25.60;;;12.73;;
27778;SDS011;30234;48.090;11.464;2022-12-01T22:54:43;28.63;;;13.40;;
27778;SDS011;30234;48.090;11.464;2022-12-01T22:58:49;26.52;;;13.27;;
27778;SDS011;30234;48.090;11.464;2022-12-01T23:02:51;27.48;;;12.65;;
27778;SDS011;30234;48.090;11.464;2022-12-01T23:06:56;25.67;;;12.68;;
27778;SDS011;30234;48.090;11.464;2022-12-01T23:11:09;25.88;;;12.88;;
27778;SDS011;30234;48.090;11.464;2022-12-01T23:19:39;24.20;;;13.02;;
27778;SDS011;30234;48.090;11.464;2022-12-01T23:23:40;25.80;;;12.23;;
27778;SDS011;30234;48.090;11.464;2022-12-01T23:27:41;21.95;;;11.32;;
27778;SDS011;30234;48.090;11.464;2022-12-01T23:31:44;23.58;;;11.85;;
27778;SDS011;30234;48.090;11.464;2022-12-01T23:35:53;22.58;;;11.95;;
27778;SDS011;30234;48.090;11.464;2022-12-01T23:40:01;23.17;;;11.20;;
27778;SDS011;30234;48.090;11.464;2022-12-01T23:44:35;22.30;;;11.68;;
27778;SDS011;30234;48.090;11.464;2022-12-01T23:52:57;24.27;;;11.00;;
27778;SDS011;30234;48.090;11.464;2022-12-01T23:57:02;25.77;;;12.40;;
